sensor_id;sensor_type;location;lat;lon;timestamp;temperature;humidity
25918;DHT22;13899;51.174;4.456;2022-11-20T00:00:57;5.50;99.90
25918;DHT22;13899;51.174;4.456;2022-11-20T00:03:29;5.70;99.90
25918;DHT22;13899;51.174;4.456;2022-11-20T00:06:00;5.70;99.90
25918;DHT22;13899;51.174;4.456;2022-11-20T00:08:25;5.70;99.90
25918;DHT22;13899;51.174;4.456;2022-11-20T00:10:51;5.70;99.90
25918;DHT22;13899;51.174;4.456;2022-11-20T00:13:16;5.70;99.90
25918;DHT22;13899;51.174;4.456;2022-11-20T00:15:42;5.80;99.90
25918;DHT22;13899;51.174;4.456;2022-11-20T00:18:07;5.80;99.90
25918;DHT22;13899;51.174;4.456;2022-11-20T00:20:33;5.80;99.90
25918;DHT22;13899;51.174;4.456;2022-11-20T00:22:58;5.90;99.90
25918;DHT22;13899;51.174;4.456;2022-11-20T00:25:24;5.90;99.90
25918;DHT22;13899;51.174;4.456;2022-11-20T00:27:50;5.90;99.90
25918;DHT22;13899;51.174;4.456;2022-11-20T00:30:16;5.90;99.90
25918;DHT22;13899;51.174;4.456;2022-11-20T00:32:41;6.00;99.90
25918;DHT22;13899;51.174;4.456;2022-11-20T00:35:07;6.00;99.90
25918;DHT22;13899;51.174;4.456;2022-11-20T00:37:33;6.00;99.90
25918;DHT22;13899;51.174;4.456;2022-11-20T00:39:58;6.10;99.90
25918;DHT22;13899;51.174;4.456;2022-11-20T00:42:24;6.00;99.90
25918;DHT22;13899;51.174;4.456;2022-11-20T00:44:49;6.00;99.90
25918;DHT22;13899;51.174;4.456;2022-11-20T00:47:15;5.90;99.90
25918;DHT22;13899;51.174;4.456;2022-11-20T00:49:40;5.70;99.90
25918;DHT22;13899;51.174;4.456;2022-11-20T00:52:06;6.00;99.90
25918;DHT22;13899;51.174;4.456;2022-11-20T00:54:32;6.10;99.90
25918;DHT22;13899;51.174;4.456;2022-11-20T00:56:57;6.30;99.90
25918;DHT22;13899;51.174;4.456;2022-11-20T00:59:23;6.40;99.90
25918;DHT22;13899;51.174;4.456;2022-11-20T01:01:48;6.20;99.90
25918;DHT22;13899;51.174;4.456;2022-11-20T01:04:14;6.30;99.90
25918;DHT22;13899;51.174;4.456;2022-11-20T01:06:40;6.20;99.90
25918;DHT22;13899;51.174;4.456;2022-11-20T01:09:09;6.10;99.90
25918;DHT22;13899;51.174;4.456;2022-11-20T01:11:38;6.20;99.90
25918;DHT22;13899;51.174;4.456;2022-11-20T01:14:07;6.20;99.90
25918;DHT22;13899;51.174;4.456;2022-11-20T01:16:44;6.30;99.90
25918;DHT22;13899;51.174;4.456;2022-11-20T01:19:16;6.00;99.90
25918;DHT22;13899;51.174;4.456;2022-11-20T01:21:43;5.90;99.90
25918;DHT22;13899;51.174;4.456;2022-11-20T01:24:11;5.90;99.90
25918;DHT22;13899;51.174;4.456;2022-11-20T01:26:38;5.90;99.90
25918;DHT22;13899;51.174;4.456;2022-11-20T01:29:05;5.80;99.90
25918;DHT22;13899;51.174;4.456;2022-11-20T01:31:33;5.90;99.90
25918;DHT22;13899;51.174;4.456;2022-11-20T01:34:04;6.00;99.90
25918;DHT22;13899;51.174;4.456;2022-11-20T01:36:32;5.90;99.90
25918;DHT22;13899;51.174;4.456;2022-11-20T01:39:01;6.00;99.90
25918;DHT22;13899;51.174;4.456;2022-11-20T01:41:29;5.90;99.90
25918;DHT22;13899;51.174;4.456;2022-11-20T01:44:17;5.90;99.90
25918;DHT22;13899;51.174;4.456;2022-11-20T01:47:04;5.60;99.90
25918;DHT22;13899;51.174;4.456;2022-11-20T01:49:44;5.50;99.90
25918;DHT22;13899;51.174;4.456;2022-11-20T01:52:28;5.70;99.90
25918;DHT22;13899;51.174;4.456;2022-11-20T01:57:34;5.80;99.90
25918;DHT22;13899;51.174;4.456;2022-11-20T02:00:12;5.80;99.90
25918;DHT22;13899;51.174;4.456;2022-11-20T02:02:41;5.70;99.90
25918;DHT22;13899;51.174;4.456;2022-11-20T02:05:18;5.60;99.90
25918;DHT22;13899;51.174;4.456;2022-11-20T02:07:46;5.70;99.90
25918;DHT22;13899;51.174;4.456;2022-11-20T02:10:12;5.70;99.90
25918;DHT22;13899;51.174;4.456;2022-11-20T02:12:38;5.70;99.90
25918;DHT22;13899;51.174;4.456;2022-11-20T02:15:22;5.70;99.90
25918;DHT22;13899;51.174;4.456;2022-11-20T02:17:48;5.80;99.90
25918;DHT22;13899;51.174;4.456;2022-11-20T02:20:14;5.90;99.90
25918;DHT22;13899;51.174;4.456;2022-11-20T02:23:08;5.80;99.90
25918;DHT22;13899;51.174;4.456;2022-11-20T02:25:36;5.70;99.90
25918;DHT22;13899;51.174;4.456;2022-11-20T02:28:04;5.50;99.90
25918;DHT22;13899;51.174;4.456;2022-11-20T02:30:30;5.30;99.90
25918;DHT22;13899;51.174;4.456;2022-11-20T02:32:55;5.00;99.90
25918;DHT22;13899;51.174;4.456;2022-11-20T02:37:50;4.40;99.90
25918;DHT22;13899;51.174;4.456;2022-11-20T02:40:18;4.40;99.90
25918;DHT22;13899;51.174;4.456;2022-11-20T02:42:43;4.40;99.90
25918;DHT22;13899;51.174;4.456;2022-11-20T02:45:09;4.40;99.90
25918;DHT22;13899;51.174;4.456;2022-11-20T02:47:35;4.00;99.90
25918;DHT22;13899;51.174;4.456;2022-11-20T02:50:00;3.90;99.90
25918;DHT22;13899;51.174;4.456;2022-11-20T02:52:26;4.20;99.90
25918;DHT22;13899;51.174;4.456;2022-11-20T02:54:52;3.90;99.90
25918;DHT22;13899;51.174;4.456;2022-11-20T02:57:18;3.90;99.90
25918;DHT22;13899;51.174;4.456;2022-11-20T02:59:44;4.10;99.90
25918;DHT22;13899;51.174;4.456;2022-11-20T03:02:09;3.90;99.90
25918;DHT22;13899;51.174;4.456;2022-11-20T03:04:35;3.90;99.90
25918;DHT22;13899;51.174;4.456;2022-11-20T03:07:00;4.00;99.90
25918;DHT22;13899;51.174;4.456;2022-11-20T03:09:26;4.30;99.90
25918;DHT22;13899;51.174;4.456;2022-11-20T03:11:51;4.50;99.90
25918;DHT22;13899;51.174;4.456;2022-11-20T03:14:17;4.80;99.90
25918;DHT22;13899;51.174;4.456;2022-11-20T03:16:43;4.70;99.90
25918;DHT22;13899;51.174;4.456;2022-11-20T03:19:08;4.20;99.90
25918;DHT22;13899;51.174;4.456;2022-11-20T03:21:34;4.00;99.90
25918;DHT22;13899;51.174;4.456;2022-11-20T03:24:00;3.90;99.90
25918;DHT22;13899;51.174;4.456;2022-11-20T03:26:26;4.00;99.90
25918;DHT22;13899;51.174;4.456;2022-11-20T03:29:00;3.90;99.90
25918;DHT22;13899;51.174;4.456;2022-11-20T03:31:37;3.90;99.90
25918;DHT22;13899;51.174;4.456;2022-11-20T03:34:05;3.90;99.90
25918;DHT22;13899;51.174;4.456;2022-11-20T03:36:31;4.10;99.90
25918;DHT22;13899;51.174;4.456;2022-11-20T03:38:57;4.00;99.90
25918;DHT22;13899;51.174;4.456;2022-11-20T03:41:25;4.10;99.90
25918;DHT22;13899;51.174;4.456;2022-11-20T03:43:57;4.10;99.90
25918;DHT22;13899;51.174;4.456;2022-11-20T03:46:23;3.90;99.90
25918;DHT22;13899;51.174;4.456;2022-11-20T03:48:49;3.80;99.90
25918;DHT22;13899;51.174;4.456;2022-11-20T03:51:18;3.60;99.90
25918;DHT22;13899;51.174;4.456;2022-11-20T03:53:46;3.50;99.90
25918;DHT22;13899;51.174;4.456;2022-11-20T03:56:13;3.60;99.90
25918;DHT22;13899;51.174;4.456;2022-11-20T03:58:40;3.60;99.90
25918;DHT22;13899;51.174;4.456;2022-11-20T04:01:14;3.90;99.90
25918;DHT22;13899;51.174;4.456;2022-11-20T04:03:41;4.20;99.90
25918;DHT22;13899;51.174;4.456;2022-11-20T04:06:09;4.30;99.90
25918;DHT22;13899;51.174;4.456;2022-11-20T04:08:35;4.20;99.90
25918;DHT22;13899;51.174;4.456;2022-11-20T04:11:28;4.30;99.90
25918;DHT22;13899;51.174;4.456;2022-11-20T04:13:59;4.50;99.90
25918;DHT22;13899;51.174;4.456;2022-11-20T04:16:26;4.70;99.90
25918;DHT22;13899;51.174;4.456;2022-11-20T04:18:55;4.60;99.90
25918;DHT22;13899;51.174;4.456;2022-11-20T04:21:22;4.40;99.90
25918;DHT22;13899;51.174;4.456;2022-11-20T04:23:48;3.80;99.90
25918;DHT22;13899;51.174;4.456;2022-11-20T04:26:13;3.60;99.90
25918;DHT22;13899;51.174;4.456;2022-11-20T04:28:39;3.70;99.90
25918;DHT22;13899;51.174;4.456;2022-11-20T04:31:16;4.00;99.90
25918;DHT22;13899;51.174;4.456;2022-11-20T04:33:42;4.10;99.90
25918;DHT22;13899;51.174;4.456;2022-11-20T04:36:12;3.90;99.90
25918;DHT22;13899;51.174;4.456;2022-11-20T04:38:39;4.00;99.90
25918;DHT22;13899;51.174;4.456;2022-11-20T04:41:15;4.20;99.90
25918;DHT22;13899;51.174;4.456;2022-11-20T04:43:41;4.20;99.90
25918;DHT22;13899;51.174;4.456;2022-11-20T04:46:07;4.20;99.90
25918;DHT22;13899;51.174;4.456;2022-11-20T04:48:32;4.20;99.90
25918;DHT22;13899;51.174;4.456;2022-11-20T04:51:03;4.20;99.90
25918;DHT22;13899;51.174;4.456;2022-11-20T04:53:29;4.30;99.90
25918;DHT22;13899;51.174;4.456;2022-11-20T04:56:04;4.60;99.90
25918;DHT22;13899;51.174;4.456;2022-11-20T04:58:30;5.00;99.90
25918;DHT22;13899;51.174;4.456;2022-11-20T05:01:23;5.40;99.90
25918;DHT22;13899;51.174;4.456;2022-11-20T05:03:49;5.50;99.90
25918;DHT22;13899;51.174;4.456;2022-11-20T05:06:21;5.60;99.90
25918;DHT22;13899;51.174;4.456;2022-11-20T05:08:47;5.80;99.90
25918;DHT22;13899;51.174;4.456;2022-11-20T05:11:15;5.90;99.90
25918;DHT22;13899;51.174;4.456;2022-11-20T05:13:42;5.70;99.90
25918;DHT22;13899;51.174;4.456;2022-11-20T05:16:10;5.50;99.90
25918;DHT22;13899;51.174;4.456;2022-11-20T05:18:37;5.60;99.90
25918;DHT22;13899;51.174;4.456;2022-11-20T05:21:03;5.60;99.90
25918;DHT22;13899;51.174;4.456;2022-11-20T05:23:31;5.70;99.90
25918;DHT22;13899;51.174;4.456;2022-11-20T05:25:57;5.70;99.90
25918;DHT22;13899;51.174;4.456;2022-11-20T05:28:23;5.50;99.90
25918;DHT22;13899;51.174;4.456;2022-11-20T05:30:50;5.20;99.90
25918;DHT22;13899;51.174;4.456;2022-11-20T05:33:16;5.00;99.90
25918;DHT22;13899;51.174;4.456;2022-11-20T05:35:42;4.90;99.90
25918;DHT22;13899;51.174;4.456;2022-11-20T05:38:07;5.10;99.90
25918;DHT22;13899;51.174;4.456;2022-11-20T05:40:33;5.40;99.90
25918;DHT22;13899;51.174;4.456;2022-11-20T05:42:59;5.50;99.90
25918;DHT22;13899;51.174;4.456;2022-11-20T05:45:25;5.50;99.90
25918;DHT22;13899;51.174;4.456;2022-11-20T05:47:51;5.40;99.90
25918;DHT22;13899;51.174;4.456;2022-11-20T05:50:16;5.40;99.90
25918;DHT22;13899;51.174;4.456;2022-11-20T05:52:42;5.40;99.90
25918;DHT22;13899;51.174;4.456;2022-11-20T05:55:08;5.20;99.90
25918;DHT22;13899;51.174;4.456;2022-11-20T05:57:33;5.50;99.90
25918;DHT22;13899;51.174;4.456;2022-11-20T05:59:59;5.60;99.90
25918;DHT22;13899;51.174;4.456;2022-11-20T06:02:24;5.30;99.90
25918;DHT22;13899;51.174;4.456;2022-11-20T06:04:50;5.40;99.90
25918;DHT22;13899;51.174;4.456;2022-11-20T06:07:16;5.40;99.90
25918;DHT22;13899;51.174;4.456;2022-11-20T06:09:41;5.30;99.90
25918;DHT22;13899;51.174;4.456;2022-11-20T06:12:07;5.40;99.90
25918;DHT22;13899;51.174;4.456;2022-11-20T06:14:33;5.10;99.90
25918;DHT22;13899;51.174;4.456;2022-11-20T06:16:58;4.90;99.90
25918;DHT22;13899;51.174;4.456;2022-11-20T06:19:24;5.10;99.90
25918;DHT22;13899;51.174;4.456;2022-11-20T06:21:50;4.60;99.90
25918;DHT22;13899;51.174;4.456;2022-11-20T06:24:16;4.50;99.90
25918;DHT22;13899;51.174;4.456;2022-11-20T06:26:42;4.10;99.90
25918;DHT22;13899;51.174;4.456;2022-11-20T06:29:07;3.90;99.90
25918;DHT22;13899;51.174;4.456;2022-11-20T06:31:33;3.80;99.90
25918;DHT22;13899;51.174;4.456;2022-11-20T06:34:05;4.10;99.90
25918;DHT22;13899;51.174;4.456;2022-11-20T06:36:32;4.10;99.90
25918;DHT22;13899;51.174;4.456;2022-11-20T06:38:58;4.40;99.90
25918;DHT22;13899;51.174;4.456;2022-11-20T06:41:24;4.50;99.90
25918;DHT22;13899;51.174;4.456;2022-11-20T06:43:50;4.30;99.90
25918;DHT22;13899;51.174;4.456;2022-11-20T06:46:18;4.30;99.90
25918;DHT22;13899;51.174;4.456;2022-11-20T06:48:44;4.40;99.90
25918;DHT22;13899;51.174;4.456;2022-11-20T06:51:10;4.20;99.90
25918;DHT22;13899;51.174;4.456;2022-11-20T06:53:36;4.00;99.90
25918;DHT22;13899;51.174;4.456;2022-11-20T06:56:02;4.20;99.90
25918;DHT22;13899;51.174;4.456;2022-11-20T06:58:30;4.20;99.90
25918;DHT22;13899;51.174;4.456;2022-11-20T07:01:00;4.20;99.90
25918;DHT22;13899;51.174;4.456;2022-11-20T07:03:25;4.40;99.90
25918;DHT22;13899;51.174;4.456;2022-11-20T07:05:51;4.40;99.90
25918;DHT22;13899;51.174;4.456;2022-11-20T07:08:19;4.40;99.90
25918;DHT22;13899;51.174;4.456;2022-11-20T07:10:44;4.40;99.90
25918;DHT22;13899;51.174;4.456;2022-11-20T07:13:10;4.40;99.90
25918;DHT22;13899;51.174;4.456;2022-11-20T07:15:35;4.70;99.90
25918;DHT22;13899;51.174;4.456;2022-11-20T07:18:01;4.50;99.90
25918;DHT22;13899;51.174;4.456;2022-11-20T07:20:27;4.70;99.90
25918;DHT22;13899;51.174;4.456;2022-11-20T07:22:57;5.10;99.90
25918;DHT22;13899;51.174;4.456;2022-11-20T07:25:23;4.80;99.90
25918;DHT22;13899;51.174;4.456;2022-11-20T07:27:49;4.70;99.90
25918;DHT22;13899;51.174;4.456;2022-11-20T07:30:16;5.00;99.90
25918;DHT22;13899;51.174;4.456;2022-11-20T07:32:41;5.10;99.90
25918;DHT22;13899;51.174;4.456;2022-11-20T07:35:07;5.10;99.90
25918;DHT22;13899;51.174;4.456;2022-11-20T07:37:36;5.10;99.90
25918;DHT22;13899;51.174;4.456;2022-11-20T07:40:02;5.10;99.90
25918;DHT22;13899;51.174;4.456;2022-11-20T07:42:50;4.60;99.90
25918;DHT22;13899;51.174;4.456;2022-11-20T07:45:40;4.50;99.90
25918;DHT22;13899;51.174;4.456;2022-11-20T07:48:15;4.90;99.90
25918;DHT22;13899;51.174;4.456;2022-11-20T07:51:10;4.60;99.90
25918;DHT22;13899;51.174;4.456;2022-11-20T07:54:03;4.70;99.90
25918;DHT22;13899;51.174;4.456;2022-11-20T07:56:55;5.00;99.90
25918;DHT22;13899;51.174;4.456;2022-11-20T07:59:41;4.90;99.90
25918;DHT22;13899;51.174;4.456;2022-11-20T08:02:10;5.20;99.90
25918;DHT22;13899;51.174;4.456;2022-11-20T08:04:39;4.80;99.90
25918;DHT22;13899;51.174;4.456;2022-11-20T08:07:11;4.90;99.90
25918;DHT22;13899;51.174;4.456;2022-11-20T08:09:37;5.10;99.90
25918;DHT22;13899;51.174;4.456;2022-11-20T08:12:18;5.30;99.90
25918;DHT22;13899;51.174;4.456;2022-11-20T08:15:04;5.00;99.90
25918;DHT22;13899;51.174;4.456;2022-11-20T08:17:30;4.90;99.90
25918;DHT22;13899;51.174;4.456;2022-11-20T08:19:59;5.30;99.90
25918;DHT22;13899;51.174;4.456;2022-11-20T08:22:29;5.40;99.90
25918;DHT22;13899;51.174;4.456;2022-11-20T08:24:55;5.60;99.90
25918;DHT22;13899;51.174;4.456;2022-11-20T08:27:22;5.80;99.90
25918;DHT22;13899;51.174;4.456;2022-11-20T08:29:48;6.10;99.90
25918;DHT22;13899;51.174;4.456;2022-11-20T08:32:19;6.00;99.90
25918;DHT22;13899;51.174;4.456;2022-11-20T08:34:52;5.50;99.90
25918;DHT22;13899;51.174;4.456;2022-11-20T08:37:20;5.30;99.90
25918;DHT22;13899;51.174;4.456;2022-11-20T08:39:55;5.20;99.90
25918;DHT22;13899;51.174;4.456;2022-11-20T08:42:22;5.20;99.90
25918;DHT22;13899;51.174;4.456;2022-11-20T08:44:50;5.40;99.90
25918;DHT22;13899;51.174;4.456;2022-11-20T08:47:30;5.50;99.90
25918;DHT22;13899;51.174;4.456;2022-11-20T08:50:18;5.80;99.90
25918;DHT22;13899;51.174;4.456;2022-11-20T08:53:04;6.20;99.90
25918;DHT22;13899;51.174;4.456;2022-11-20T08:55:30;6.30;99.90
25918;DHT22;13899;51.174;4.456;2022-11-20T08:57:56;6.20;99.90
25918;DHT22;13899;51.174;4.456;2022-11-20T09:00:27;6.20;99.90
25918;DHT22;13899;51.174;4.456;2022-11-20T09:02:55;6.20;99.90
25918;DHT22;13899;51.174;4.456;2022-11-20T09:05:20;6.00;99.90
25918;DHT22;13899;51.174;4.456;2022-11-20T09:07:46;6.00;99.90
25918;DHT22;13899;51.174;4.456;2022-11-20T09:10:11;6.20;99.90
25918;DHT22;13899;51.174;4.456;2022-11-20T09:12:37;6.50;99.90
25918;DHT22;13899;51.174;4.456;2022-11-20T09:15:03;6.60;99.90
25918;DHT22;13899;51.174;4.456;2022-11-20T09:17:28;6.20;99.90
25918;DHT22;13899;51.174;4.456;2022-11-20T09:19:54;6.30;99.90
25918;DHT22;13899;51.174;4.456;2022-11-20T09:22:19;6.50;99.90
25918;DHT22;13899;51.174;4.456;2022-11-20T09:24:45;6.70;99.90
25918;DHT22;13899;51.174;4.456;2022-11-20T09:27:11;6.70;99.90
25918;DHT22;13899;51.174;4.456;2022-11-20T09:29:36;6.60;99.90
25918;DHT22;13899;51.174;4.456;2022-11-20T09:32:02;6.40;99.90
25918;DHT22;13899;51.174;4.456;2022-11-20T09:34:27;6.40;99.90
25918;DHT22;13899;51.174;4.456;2022-11-20T09:36:53;6.60;99.90
25918;DHT22;13899;51.174;4.456;2022-11-20T09:39:19;6.50;99.90
25918;DHT22;13899;51.174;4.456;2022-11-20T09:41:52;6.80;99.90
25918;DHT22;13899;51.174;4.456;2022-11-20T09:53:04;6.40;99.90
25918;DHT22;13899;51.174;4.456;2022-11-20T09:55:35;6.30;99.90
25918;DHT22;13899;51.174;4.456;2022-11-20T09:58:12;6.40;99.90
25918;DHT22;13899;51.174;4.456;2022-11-20T10:00:39;6.40;99.90
25918;DHT22;13899;51.174;4.456;2022-11-20T10:03:37;6.30;99.90
25918;DHT22;13899;51.174;4.456;2022-11-20T10:06:05;6.20;99.90
25918;DHT22;13899;51.174;4.456;2022-11-20T10:08:44;6.20;99.90
25918;DHT22;13899;51.174;4.456;2022-11-20T10:11:43;6.20;99.90
25918;DHT22;13899;51.174;4.456;2022-11-20T10:14:23;5.90;99.90
25918;DHT22;13899;51.174;4.456;2022-11-20T10:19:40;6.10;99.90
25918;DHT22;13899;51.174;4.456;2022-11-20T10:25:18;6.20;99.90
25918;DHT22;13899;51.174;4.456;2022-11-20T10:30:44;6.30;99.90
25918;DHT22;13899;51.174;4.456;2022-11-20T10:33:17;6.50;99.90
25918;DHT22;13899;51.174;4.456;2022-11-20T10:36:16;6.50;99.90
25918;DHT22;13899;51.174;4.456;2022-11-20T10:38:46;6.50;99.90
25918;DHT22;13899;51.174;4.456;2022-11-20T10:41:23;6.50;99.90
25918;DHT22;13899;51.174;4.456;2022-11-20T10:44:22;6.70;99.90
25918;DHT22;13899;51.174;4.456;2022-11-20T10:47:15;6.90;99.90
25918;DHT22;13899;51.174;4.456;2022-11-20T10:49:43;6.80;99.90
25918;DHT22;13899;51.174;4.456;2022-11-20T10:52:16;6.90;99.90
25918;DHT22;13899;51.174;4.456;2022-11-20T10:54:49;7.00;99.90
25918;DHT22;13899;51.174;4.456;2022-11-20T10:57:41;7.10;99.90
25918;DHT22;13899;51.174;4.456;2022-11-20T11:00:11;7.40;99.90
25918;DHT22;13899;51.174;4.456;2022-11-20T11:02:48;7.50;99.90
25918;DHT22;13899;51.174;4.456;2022-11-20T11:08:17;7.60;99.90
25918;DHT22;13899;51.174;4.456;2022-11-20T11:10:54;7.70;99.90
25918;DHT22;13899;51.174;4.456;2022-11-20T11:13:21;7.60;99.90
25918;DHT22;13899;51.174;4.456;2022-11-20T11:15:48;7.70;99.90
25918;DHT22;13899;51.174;4.456;2022-11-20T11:18:28;7.60;99.90
25918;DHT22;13899;51.174;4.456;2022-11-20T11:20:56;7.80;99.90
25918;DHT22;13899;51.174;4.456;2022-11-20T11:23:42;8.30;99.90
25918;DHT22;13899;51.174;4.456;2022-11-20T11:26:20;8.30;99.90
25918;DHT22;13899;51.174;4.456;2022-11-20T11:28:59;8.10;99.90
25918;DHT22;13899;51.174;4.456;2022-11-20T11:31:27;7.90;99.90
25918;DHT22;13899;51.174;4.456;2022-11-20T11:34:07;8.30;99.90
25918;DHT22;13899;51.174;4.456;2022-11-20T11:36:36;8.10;99.90
25918;DHT22;13899;51.174;4.456;2022-11-20T11:39:04;7.90;99.90
25918;DHT22;13899;51.174;4.456;2022-11-20T11:41:34;8.10;99.90
25918;DHT22;13899;51.174;4.456;2022-11-20T11:44:17;8.40;99.90
25918;DHT22;13899;51.174;4.456;2022-11-20T11:47:04;8.40;99.90
25918;DHT22;13899;51.174;4.456;2022-11-20T11:49:33;8.20;99.90
25918;DHT22;13899;51.174;4.456;2022-11-20T11:54:43;8.30;99.90
25918;DHT22;13899;51.174;4.456;2022-11-20T11:58:02;8.30;99.90
25918;DHT22;13899;51.174;4.456;2022-11-20T12:02:57;8.10;99.90
25918;DHT22;13899;51.174;4.456;2022-11-20T12:08:32;8.50;99.90
25918;DHT22;13899;51.174;4.456;2022-11-20T12:11:23;8.80;99.90
25918;DHT22;13899;51.174;4.456;2022-11-20T12:16:52;8.60;99.90
25918;DHT22;13899;51.174;4.456;2022-11-20T12:19:31;8.50;99.90
25918;DHT22;13899;51.174;4.456;2022-11-20T12:33:58;8.70;99.90
25918;DHT22;13899;51.174;4.456;2022-11-20T12:36:47;8.60;99.90
25918;DHT22;13899;51.174;4.456;2022-11-20T12:42:20;8.40;99.90
25918;DHT22;13899;51.174;4.456;2022-11-20T12:51:23;8.30;99.90
25918;DHT22;13899;51.174;4.456;2022-11-20T12:57:27;8.20;99.90
25918;DHT22;13899;51.174;4.456;2022-11-20T13:03:06;8.10;99.90
25918;DHT22;13899;51.174;4.456;2022-11-20T13:05:55;8.10;99.90
25918;DHT22;13899;51.174;4.456;2022-11-20T13:08:53;8.00;99.90
25918;DHT22;13899;51.174;4.456;2022-11-20T13:11:44;8.00;99.90
25918;DHT22;13899;51.174;4.456;2022-11-20T13:17:11;8.00;99.90
25918;DHT22;13899;51.174;4.456;2022-11-20T13:19:40;7.90;99.90
25918;DHT22;13899;51.174;4.456;2022-11-20T13:22:08;7.90;99.90
25918;DHT22;13899;51.174;4.456;2022-11-20T13:24:37;7.90;99.90
25918;DHT22;13899;51.174;4.456;2022-11-20T13:30:01;7.90;99.90
25918;DHT22;13899;51.174;4.456;2022-11-20T13:32:33;7.90;99.90
25918;DHT22;13899;51.174;4.456;2022-11-20T13:35:03;7.90;99.90
25918;DHT22;13899;51.174;4.456;2022-11-20T13:37:32;7.80;99.90
25918;DHT22;13899;51.174;4.456;2022-11-20T13:40:24;8.00;99.90
25918;DHT22;13899;51.174;4.456;2022-11-20T13:43:18;7.90;99.90
25918;DHT22;13899;51.174;4.456;2022-11-20T13:45:57;7.90;99.90
25918;DHT22;13899;51.174;4.456;2022-11-20T13:48:30;7.80;99.90
25918;DHT22;13899;51.174;4.456;2022-11-20T13:51:07;7.80;99.90
25918;DHT22;13899;51.174;4.456;2022-11-20T13:53:57;7.80;99.90
25918;DHT22;13899;51.174;4.456;2022-11-20T13:59:55;7.80;99.90
25918;DHT22;13899;51.174;4.456;2022-11-20T14:02:23;7.80;99.90
25918;DHT22;13899;51.174;4.456;2022-11-20T14:04:53;7.70;99.90
25918;DHT22;13899;51.174;4.456;2022-11-20T14:07:23;7.70;99.90
25918;DHT22;13899;51.174;4.456;2022-11-20T14:12:37;7.70;99.90
25918;DHT22;13899;51.174;4.456;2022-11-20T14:15:03;7.70;99.90
25918;DHT22;13899;51.174;4.456;2022-11-20T14:17:35;7.70;99.90
25918;DHT22;13899;51.174;4.456;2022-11-20T14:20:05;7.70;99.90
25918;DHT22;13899;51.174;4.456;2022-11-20T14:22:31;7.70;99.90
25918;DHT22;13899;51.174;4.456;2022-11-20T14:27:42;7.80;99.90
25918;DHT22;13899;51.174;4.456;2022-11-20T14:30:15;7.80;99.90
25918;DHT22;13899;51.174;4.456;2022-11-20T14:32:44;7.80;99.90
25918;DHT22;13899;51.174;4.456;2022-11-20T14:35:31;7.80;99.90
25918;DHT22;13899;51.174;4.456;2022-11-20T14:37:57;7.80;99.90
25918;DHT22;13899;51.174;4.456;2022-11-20T14:42:59;7.90;99.90
25918;DHT22;13899;51.174;4.456;2022-11-20T14:45:30;7.90;99.90
25918;DHT22;13899;51.174;4.456;2022-11-20T14:47:58;7.90;99.90
25918;DHT22;13899;51.174;4.456;2022-11-20T14:50:27;7.90;99.90
25918;DHT22;13899;51.174;4.456;2022-11-20T14:52:58;7.90;99.90
25918;DHT22;13899;51.174;4.456;2022-11-20T14:55:37;7.90;99.90
25918;DHT22;13899;51.174;4.456;2022-11-20T14:58:32;7.90;99.90
25918;DHT22;13899;51.174;4.456;2022-11-20T15:01:05;7.90;99.90
25918;DHT22;13899;51.174;4.456;2022-11-20T15:04:00;8.00;99.90
25918;DHT22;13899;51.174;4.456;2022-11-20T15:06:26;8.00;99.90
25918;DHT22;13899;51.174;4.456;2022-11-20T15:08:53;8.00;99.90
25918;DHT22;13899;51.174;4.456;2022-11-20T15:11:23;8.00;99.90
25918;DHT22;13899;51.174;4.456;2022-11-20T15:13:52;8.00;99.90
25918;DHT22;13899;51.174;4.456;2022-11-20T15:16:21;8.00;99.90
25918;DHT22;13899;51.174;4.456;2022-11-20T15:18:54;8.00;99.90
25918;DHT22;13899;51.174;4.456;2022-11-20T15:21:20;8.00;99.90
25918;DHT22;13899;51.174;4.456;2022-11-20T15:23:50;8.20;99.90
25918;DHT22;13899;51.174;4.456;2022-11-20T15:26:27;8.10;99.90
25918;DHT22;13899;51.174;4.456;2022-11-20T15:28:53;8.10;99.90
25918;DHT22;13899;51.174;4.456;2022-11-20T15:31:22;8.20;99.90
25918;DHT22;13899;51.174;4.456;2022-11-20T15:34:16;8.20;99.90
25918;DHT22;13899;51.174;4.456;2022-11-20T15:39:28;8.20;99.90
25918;DHT22;13899;51.174;4.456;2022-11-20T15:42:16;8.30;99.90
25918;DHT22;13899;51.174;4.456;2022-11-20T15:44:48;8.40;99.90
25918;DHT22;13899;51.174;4.456;2022-11-20T15:47:14;8.30;99.90
25918;DHT22;13899;51.174;4.456;2022-11-20T15:49:50;8.40;99.90
25918;DHT22;13899;51.174;4.456;2022-11-20T15:52:17;8.40;99.90
25918;DHT22;13899;51.174;4.456;2022-11-20T15:54:43;8.40;99.90
25918;DHT22;13899;51.174;4.456;2022-11-20T15:57:11;8.40;99.90
25918;DHT22;13899;51.174;4.456;2022-11-20T15:59:38;8.50;99.90
25918;DHT22;13899;51.174;4.456;2022-11-20T16:02:33;8.40;99.90
25918;DHT22;13899;51.174;4.456;2022-11-20T16:05:28;8.40;99.90
25918;DHT22;13899;51.174;4.456;2022-11-20T16:08:30;8.50;99.90
25918;DHT22;13899;51.174;4.456;2022-11-20T16:10:56;8.50;99.90
25918;DHT22;13899;51.174;4.456;2022-11-20T16:13:23;8.50;99.90
25918;DHT22;13899;51.174;4.456;2022-11-20T16:16:19;8.40;99.90
25918;DHT22;13899;51.174;4.456;2022-11-20T16:19:01;8.40;99.90
25918;DHT22;13899;51.174;4.456;2022-11-20T16:21:56;8.60;99.90
25918;DHT22;13899;51.174;4.456;2022-11-20T16:24:53;8.50;99.90
25918;DHT22;13899;51.174;4.456;2022-11-20T16:38:13;8.60;99.90
25918;DHT22;13899;51.174;4.456;2022-11-20T16:40:39;8.60;99.90
25918;DHT22;13899;51.174;4.456;2022-11-20T16:43:09;8.60;99.90
25918;DHT22;13899;51.174;4.456;2022-11-20T16:45:43;8.50;99.90
25918;DHT22;13899;51.174;4.456;2022-11-20T16:48:18;8.70;99.90
25918;DHT22;13899;51.174;4.456;2022-11-20T16:56:28;8.50;99.90
25918;DHT22;13899;51.174;4.456;2022-11-20T16:58:57;8.50;99.90
25918;DHT22;13899;51.174;4.456;2022-11-20T17:01:42;8.60;99.90
25918;DHT22;13899;51.174;4.456;2022-11-20T17:04:11;8.50;99.90
25918;DHT22;13899;51.174;4.456;2022-11-20T17:06:46;8.50;99.90
25918;DHT22;13899;51.174;4.456;2022-11-20T17:09:35;8.50;99.90
25918;DHT22;13899;51.174;4.456;2022-11-20T17:12:11;8.40;99.90
25918;DHT22;13899;51.174;4.456;2022-11-20T17:17:37;8.50;99.90
25918;DHT22;13899;51.174;4.456;2022-11-20T17:20:11;8.40;99.90
25918;DHT22;13899;51.174;4.456;2022-11-20T17:22:38;8.50;99.90
25918;DHT22;13899;51.174;4.456;2022-11-20T17:25:08;8.50;99.90
25918;DHT22;13899;51.174;4.456;2022-11-20T17:27:34;8.60;99.90
25918;DHT22;13899;51.174;4.456;2022-11-20T17:30:17;8.60;99.90
25918;DHT22;13899;51.174;4.456;2022-11-20T17:33:05;8.50;99.90
25918;DHT22;13899;51.174;4.456;2022-11-20T17:35:37;8.30;99.90
25918;DHT22;13899;51.174;4.456;2022-11-20T17:38:12;8.30;99.90
25918;DHT22;13899;51.174;4.456;2022-11-20T17:40:41;8.30;99.90
25918;DHT22;13899;51.174;4.456;2022-11-20T17:43:25;8.20;99.90
25918;DHT22;13899;51.174;4.456;2022-11-20T17:49:38;8.20;99.90
25918;DHT22;13899;51.174;4.456;2022-11-20T17:52:03;8.10;99.90
25918;DHT22;13899;51.174;4.456;2022-11-20T17:54:29;8.10;99.90
25918;DHT22;13899;51.174;4.456;2022-11-20T17:56:58;8.10;99.90
25918;DHT22;13899;51.174;4.456;2022-11-20T17:59:45;8.20;99.90